Time;durP1;ratioP1;P1;durP2;ratioP2;P2;SDS_P1;SDS_P2;PMS_P1;PMS_P2;Temp;Humidity;BMP_temperature;BMP_pressure;BME280_temperature;BME280_humidity;BME280_pressure;Samples;Min_cycle;Max_cycle;Signal;HPM_P1;HPM_P2
2022/04/25 00:00:55;;;;;;;10.10;5.57;;;;;;;17.15;44.28;101105.19;5040106;28;20039;-73
2022/04/25 00:03:20;;;;;;;13.90;5.80;;;;;;;17.32;43.84;101101.97;5049498;28;20032;-73
2022/04/25 00:05:46;;;;;;;15.13;6.00;;;;;;;17.08;44.23;101105.38;5043049;28;20055;-73
2022/04/25 00:08:11;;;;;;;12.93;5.60;;;;;;;17.58;43.27;101098.41;5049379;28;20025;-73
2022/04/25 00:10:37;;;;;;;10.63;6.20;;;;;;;17.15;44.21;101105.19;5046834;28;20481;-73
2022/04/25 00:13:02;;;;;;;9.40;5.47;;;;;;;17.39;43.72;101104.34;5049766;28;20500;-73
2022/04/25 00:15:28;;;;;;;11.27;5.50;;;;;;;17.69;43.12;101103.31;5047880;28;20369;-72
2022/04/25 00:17:54;;;;;;;10.57;5.43;;;;;;;17.67;42.42;101108.66;5044673;28;20527;-73
2022/04/25 00:20:19;;;;;;;15.20;5.77;;;;;;;17.38;42.56;101102.63;5049176;28;20025;-73
2022/04/25 00:22:46;;;;;;;12.10;5.40;;;;;;;17.33;43.40;101099.25;5046239;28;20491;-73
2022/04/25 00:25:12;;;;;;;11.53;5.60;;;;;;;17.01;43.50;101102.97;5048050;28;20175;-73
2022/04/25 00:27:38;;;;;;;9.07;5.03;;;;;;;17.35;42.51;101096.56;5047407;28;20041;-73
2022/04/25 00:30:04;;;;;;;8.60;5.17;;;;;;;16.85;43.34;101103.44;5048037;28;20379;-73
2022/04/25 00:32:29;;;;;;;9.07;5.70;;;;;;;16.86;43.25;101099.03;5048677;28;20033;-72
2022/04/25 00:34:55;;;;;;;10.47;5.70;;;;;;;17.07;42.66;101098.34;5049904;28;20440;-72
2022/04/25 00:37:20;;;;;;;12.27;6.23;;;;;;;17.36;41.98;101104.44;5047175;28;20396;-73
2022/04/25 00:39:45;;;;;;;12.57;5.87;;;;;;;17.26;42.64;101108.31;5047235;28;20020;-73
2022/04/25 00:42:11;;;;;;;12.07;6.60;;;;;;;17.16;42.16;101096.31;5027585;28;20102;-72
2022/04/25 00:44:37;;;;;;;11.87;5.73;;;;;;;17.10;42.58;101102.66;5044552;28;20255;-72
2022/04/25 00:47:04;;;;;;;11.77;5.93;;;;;;;16.65;43.58;101106.72;5047201;28;20037;-73
2022/04/25 00:49:30;;;;;;;14.27;5.87;;;;;;;16.81;43.56;101103.59;5047065;28;20033;-73
2022/04/25 00:51:55;;;;;;;11.20;6.40;;;;;;;17.21;42.51;101094.38;5047419;28;20526;-73
2022/04/25 00:54:21;;;;;;;14.07;6.50;;;;;;;17.50;42.51;101100.47;5048340;28;20053;-73
2022/04/25 00:56:48;;;;;;;11.43;6.30;;;;;;;17.54;42.01;101096.78;5043642;28;20029;-73
2022/04/25 00:59:19;;;;;;;12.33;6.20;;;;;;;17.29;41.81;101097.63;5040474;28;20063;-73
2022/04/25 01:01:45;;;;;;;12.90;5.83;;;;;;;17.23;42.06;101092.56;5079716;28;20440;-73
2022/04/25 01:04:11;;;;;;;15.60;7.27;;;;;;;17.49;41.95;101093.44;5047666;28;20056;-73
2022/04/25 01:06:37;;;;;;;14.93;5.73;;;;;;;18.07;40.97;101096.66;5045563;28;20180;-72
2022/04/25 01:09:03;;;;;;;11.23;6.27;;;;;;;17.92;40.91;101094.59;5082162;28;20029;-73
2022/04/25 01:11:28;;;;;;;13.27;5.63;;;;;;;17.68;41.69;101096.31;5046488;28;20037;-73
2022/04/25 01:13:54;;;;;;;14.17;5.77;;;;;;;17.88;40.87;101101.75;5040863;28;20071;-73
2022/04/25 01:16:20;;;;;;;11.43;6.03;;;;;;;18.30;40.61;101097.59;5048180;28;20111;-73
2022/04/25 01:18:46;;;;;;;12.37;5.70;;;;;;;18.12;40.49;101100.00;5049466;28;20040;-73
2022/04/25 01:21:13;;;;;;;11.53;6.37;;;;;;;18.10;40.88;101096.56;5047282;28;20076;-73
2022/04/25 01:29:08;;;;;;;9.13;5.27;;;;;;;17.45;41.99;101090.91;5037614;28;20118;-73
2022/04/25 01:31:34;;;;;;;10.30;6.07;;;;;;;17.53;42.35;101089.78;5048050;28;20299;-74
2022/04/25 01:33:59;;;;;;;10.73;5.73;;;;;;;17.51;42.27;101091.63;5043590;28;20026;-73
2022/04/25 01:36:25;;;;;;;12.77;5.63;;;;;;;18.05;41.16;101082.66;5045256;28;20401;-73
2022/04/25 01:38:54;;;;;;;10.67;5.70;;;;;;;17.93;41.54;101083.13;5046878;28;20460;-73
2022/04/25 01:41:20;;;;;;;14.17;5.73;;;;;;;17.42;42.76;101083.09;5047043;28;20017;-73
2022/04/25 01:43:46;;;;;;;8.50;5.97;;;;;;;17.58;41.46;101085.19;5037293;28;20397;-73
2022/04/25 01:46:11;;;;;;;11.97;5.80;;;;;;;18.10;40.64;101085.97;5037310;28;20033;-73
2022/04/25 01:48:37;;;;;;;10.77;5.63;;;;;;;18.14;41.02;101090.22;5039829;28;20036;-73
2022/04/25 01:51:02;;;;;;;13.40;5.90;;;;;;;17.77;41.61;101088.91;5047376;28;20028;-73
2022/04/25 01:53:29;;;;;;;13.97;6.40;;;;;;;17.98;41.68;101086.44;5044354;28;20095;-73
2022/04/25 01:55:54;;;;;;;14.80;6.27;;;;;;;16.92;42.54;101088.28;5027602;28;20029;-73
2022/04/25 01:58:20;;;;;;;12.17;6.10;;;;;;;17.97;41.10;101084.72;5042568;28;20117;-72
2022/04/25 02:00:45;;;;;;;13.33;6.10;;;;;;;17.85;41.16;101085.13;5047068;28;20074;-72
2022/04/25 02:03:11;;;;;;;12.47;6.27;;;;;;;18.57;39.99;101090.34;5051107;28;20123;-72
2022/04/25 02:05:37;;;;;;;10.20;6.17;;;;;;;18.27;39.56;101087.13;5033886;28;20544;-72
2022/04/25 02:08:03;;;;;;;10.60;6.37;;;;;;;17.89;41.17;101086.75;5051950;28;20113;-72
2022/04/25 02:10:28;;;;;;;15.87;6.63;;;;;;;18.35;39.78;101089.47;5049946;28;20131;-72
2022/04/25 02:12:54;;;;;;;12.93;6.37;;;;;;;17.68;41.88;101086.59;5032271;28;20051;-72
2022/04/25 02:15:19;;;;;;;13.43;6.07;;;;;;;17.79;40.85;101087.09;5033204;28;20029;-72
2022/04/25 02:17:45;;;;;;;11.60;6.13;;;;;;;17.55;41.55;101087.97;5051324;28;20021;-72
2022/04/25 02:20:11;;;;;;;10.40;5.70;;;;;;;18.42;40.11;101088.31;5051456;28;20108;-72
2022/04/25 02:22:37;;;;;;;13.50;6.50;;;;;;;18.28;40.30;101086.19;5038732;28;20444;-72
2022/04/25 02:25:03;;;;;;;12.27;6.10;;;;;;;18.26;40.32;101082.75;5032826;28;20095;-72
2022/04/25 02:27:28;;;;;;;10.70;5.80;;;;;;;18.01;40.92;101081.03;5048476;28;20079;-72
2022/04/25 02:29:58;;;;;;;13.30;7.17;;;;;;;17.29;41.82;101082.63;5050314;28;20197;-73
2022/04/25 02:32:24;;;;;;;9.50;6.20;;;;;;;18.26;40.46;101080.97;5051673;28;20044;-72
2022/04/25 02:34:53;;;;;;;13.93;6.43;;;;;;;18.16;40.86;101078.72;5038486;28;20437;-72
2022/04/25 02:37:19;;;;;;;17.53;6.30;;;;;;;18.44;39.84;101079.41;5048318;28;20021;-72
2022/04/25 02:39:44;;;;;;;13.30;6.30;;;;;;;17.94;40.34;101074.22;5052085;28;20069;-72
2022/04/25 02:42:10;;;;;;;9.63;6.03;;;;;;;18.19;40.56;101078.59;5041696;28;20029;-72
2022/04/25 02:44:35;;;;;;;12.07;5.90;;;;;;;18.45;40.08;101075.84;5048458;28;20025;-71
2022/04/25 02:47:01;;;;;;;14.20;6.43;;;;;;;18.50;40.14;101085.38;5049420;28;20032;-72
2022/04/25 02:49:26;;;;;;;11.13;5.50;;;;;;;18.99;38.81;101070.19;5051084;28;20053;-72
2022/04/25 02:51:51;;;;;;;10.43;5.80;;;;;;;18.47;40.23;101081.91;5048638;28;20032;-72
2022/04/25 02:54:17;;;;;;;11.40;6.03;;;;;;;18.27;40.39;101076.53;5045845;28;20061;-72
2022/04/25 02:56:42;;;;;;;9.83;5.80;;;;;;;18.61;39.92;101076.06;5046247;28;20218;-72
2022/04/25 02:59:07;;;;;;;11.13;6.00;;;;;;;18.19;40.23;101075.97;5050408;28;20044;-72
2022/04/25 03:01:33;;;;;;;11.77;5.80;;;;;;;18.46;39.90;101077.56;5050806;28;20043;-71
2022/04/25 03:03:58;;;;;;;12.73;5.70;;;;;;;19.00;39.28;101069.28;5047035;28;20622;-72
2022/04/25 03:06:24;;;;;;;10.10;5.50;;;;;;;18.70;39.79;101073.97;5031629;28;20033;-72
2022/04/25 03:08:49;;;;;;;13.13;5.50;;;;;;;18.27;40.24;101076.53;5034703;28;20047;-72
2022/04/25 03:11:15;;;;;;;9.17;5.70;;;;;;;18.30;40.53;101076.44;5042026;28;20028;-72
2022/04/25 03:13:40;;;;;;;11.53;5.10;;;;;;;17.04;42.52;101071.19;5046905;28;20025;-72
2022/04/25 03:16:06;;;;;;;10.83;5.23;;;;;;;18.20;41.03;101080.34;5030763;28;20508;-72
2022/04/25 03:18:32;;;;;;;13.80;5.83;;;;;;;18.36;40.82;101070.88;5031847;28;20049;-71
2022/04/25 03:20:59;;;;;;;15.57;5.80;;;;;;;17.38;42.40;101070.91;5051709;28;20029;-72
2022/04/25 03:23:25;;;;;;;10.87;5.33;;;;;;;17.40;42.59;101069.06;5049930;28;20103;-72
2022/04/25 03:25:51;;;;;;;19.10;5.40;;;;;;;17.16;43.15;101064.63;5036882;28;20121;-72
2022/04/25 03:28:18;;;;;;;14.30;5.53;;;;;;;17.53;42.37;101071.28;5030204;28;20401;-72
2022/04/25 03:30:43;;;;;;;11.17;5.67;;;;;;;16.66;44.98;101075.91;5032816;28;20100;-72
2022/04/25 03:33:13;;;;;;;14.27;6.03;;;;;;;16.77;44.17;101077.28;5029918;28;20461;-73
2022/04/25 03:35:41;;;;;;;10.80;5.40;;;;;;;17.82;41.77;101070.25;5031909;28;20030;-71
2022/04/25 03:38:08;;;;;;;13.43;5.67;;;;;;;16.72;43.74;101076.56;5031789;28;20026;-72
2022/04/25 03:40:37;;;;;;;7.47;4.47;;;;;;;16.18;45.08;101070.28;5033789;28;20037;-71
2022/04/25 03:43:09;;;;;;;13.77;6.00;;;;;;;16.75;43.98;101071.19;5045193;28;20029;-72
2022/04/25 03:45:35;;;;;;;11.03;5.30;;;;;;;16.72;44.58;101066.00;5037160;28;20036;-72
2022/04/25 03:48:02;;;;;;;9.27;4.87;;;;;;;16.85;44.22;101068.25;5042877;28;20027;-72
2022/04/25 03:50:27;;;;;;;8.70;4.43;;;;;;;16.65;45.83;101075.06;5050403;28;20040;-72
2022/04/25 03:52:53;;;;;;;12.57;4.73;;;;;;;17.61;44.05;101066.56;5049377;28;20029;-73
2022/04/25 03:58:04;;;;;;;6.07;4.20;;;;;;;16.28;47.10;101073.53;5043850;28;20047;-75
2022/04/25 04:00:31;;;;;;;7.10;4.60;;;;;;;15.10;51.06;101068.81;5049099;28;20025;-74
2022/04/25 04:02:58;;;;;;;10.80;4.23;;;;;;;15.97;48.06;101069.16;5049062;28;20047;-75
2022/04/25 04:05:25;;;;;;;6.87;3.63;;;;;;;16.06;48.06;101066.25;5038693;28;20489;-74
2022/04/25 04:07:51;;;;;;;7.73;4.00;;;;;;;16.14;47.63;101066.00;5038018;28;20021;-74
2022/04/25 04:10:19;;;;;;;6.73;3.83;;;;;;;16.38;48.01;101071.47;5046401;28;20025;-74
2022/04/25 04:12:48;;;;;;;7.67;3.70;;;;;;;16.82;46.42;101066.56;5031826;28;20029;-74
2022/04/25 04:15:16;;;;;;;7.27;3.67;;;;;;;16.93;46.51;101076.81;5042096;28;20035;-74
2022/04/25 04:17:41;;;;;;;4.70;3.20;;;;;;;15.78;48.95;101088.09;5049559;28;20021;-75
2022/04/25 04:20:08;;;;;;;6.93;3.83;;;;;;;16.73;47.53;101082.69;5049623;28;20020;-74
2022/04/25 04:22:34;;;;;;;6.63;3.57;;;;;;;17.45;45.33;101079.50;5049003;28;20118;-74
2022/04/25 04:25:01;;;;;;;5.87;3.60;;;;;;;17.32;45.92;101086.97;5040236;28;20044;-74
2022/04/25 04:27:31;;;;;;;5.00;3.93;;;;;;;16.48;47.39;101087.91;5049771;28;20431;-74
2022/04/25 04:30:00;;;;;;;6.50;3.77;;;;;;;17.34;45.43;101084.25;5048319;28;20448;-73
2022/04/25 04:32:30;;;;;;;9.70;4.37;;;;;;;17.64;44.59;101085.00;5035077;28;20488;-73
2022/04/25 04:35:00;;;;;;;5.53;3.90;;;;;;;17.85;44.28;101090.44;5036630;28;20028;-73
2022/04/25 04:37:26;;;;;;;5.83;3.97;;;;;;;17.30;46.28;101089.66;5049180;28;20021;-73
2022/04/25 04:40:28;;;;;;;7.80;4.60;;;;;;;17.55;45.70;101093.25;5047725;28;20473;-73
2022/04/25 04:42:41;;;;;;;8.40;4.70;;;;;;;17.24;46.17;101095.16;5049901;28;20035;-73
2022/04/25 04:45:07;;;;;;;5.90;4.33;;;;;;;17.25;46.37;101101.28;5048822;28;20025;-73
2022/04/25 04:47:38;;;;;;;7.43;4.60;;;;;;;17.35;46.14;101108.00;5047025;28;20036;-73
2022/04/25 04:50:05;;;;;;;7.33;5.00;;;;;;;17.83;45.23;101113.41;5034510;28;20196;-73
2022/04/25 04:52:31;;;;;;;9.53;5.37;;;;;;;17.61;45.60;101114.16;5029478;28;20379;-73
2022/04/25 04:54:57;;;;;;;10.67;5.60;;;;;;;17.80;45.17;101117.91;5041597;28;20104;-74
2022/04/25 04:57:22;;;;;;;11.60;6.10;;;;;;;17.60;45.72;101117.75;5048303;28;20035;-74
2022/04/25 04:59:47;;;;;;;11.93;7.00;;;;;;;18.01;45.03;101118.06;5049054;28;20036;-74
2022/04/25 05:02:15;;;;;;;12.03;6.53;;;;;;;17.91;45.51;101127.22;5049229;28;20032;-74
2022/04/25 05:04:40;;;;;;;16.33;7.50;;;;;;;17.67;45.95;101129.81;5047368;28;20488;-73
2022/04/25 05:07:06;;;;;;;12.60;7.10;;;;;;;17.20;46.98;101130.53;5048731;28;20031;-74
2022/04/25 05:09:31;;;;;;;13.87;7.20;;;;;;;16.92;47.76;101130.53;5039149;28;20481;-73
2022/04/25 05:11:56;;;;;;;14.07;7.20;;;;;;;18.13;44.88;101128.19;5038726;28;20056;-74
2022/04/25 05:14:22;;;;;;;15.13;7.83;;;;;;;17.64;46.04;101140.50;5046847;28;20033;-74
2022/04/25 05:16:47;;;;;;;15.20;7.50;;;;;;;17.76;45.35;101136.53;5036109;28;20020;-74
2022/04/25 05:19:12;;;;;;;14.03;7.40;;;;;;;17.89;45.28;101144.94;5044657;28;20503;-74
2022/04/25 05:21:39;;;;;;;12.80;7.20;;;;;;;17.84;45.14;101146.88;5040395;28;20049;-74
2022/04/25 05:24:05;;;;;;;14.80;7.27;;;;;;;17.96;44.85;101142.03;5028905;28;20079;-73
2022/04/25 05:26:31;;;;;;;12.07;6.90;;;;;;;17.26;44.88;101140.00;5047389;28;20028;-73
2022/04/25 05:28:57;;;;;;;12.90;7.00;;;;;;;17.60;45.68;101141.53;5048317;28;20375;-73
2022/04/25 05:31:23;;;;;;;15.13;6.90;;;;;;;17.81;44.89;101143.41;5050071;28;20028;-73
2022/04/25 05:33:48;;;;;;;14.30;7.67;;;;;;;17.83;45.43;101151.28;5046474;28;20520;-73
2022/04/25 05:36:13;;;;;;;17.53;7.67;;;;;;;17.89;44.55;101152.84;5032167;28;20025;-73
2022/04/25 05:38:39;;;;;;;14.40;7.90;;;;;;;18.41;44.02;101152.72;5033344;28;20382;-73
2022/04/25 05:41:04;;;;;;;19.57;9.20;;;;;;;17.99;44.71;101151.63;5051880;28;20488;-72
2022/04/25 05:43:30;;;;;;;19.23;8.63;;;;;;;17.92;44.99;101155.41;5050622;28;20021;-73
2022/04/25 05:45:55;;;;;;;16.07;8.73;;;;;;;18.41;44.48;101158.91;5052081;28;20032;-73
2022/04/25 05:53:48;;;;;;;16.93;8.57;;;;;;;18.60;43.45;101163.50;5052763;28;20040;-73
2022/04/25 05:56:14;;;;;;;18.37;9.30;;;;;;;18.25;43.93;101169.19;5052697;28;20037;-73
2022/04/25 05:58:39;;;;;;;20.17;10.13;;;;;;;18.50;43.38;101170.91;5050416;28;20025;-73
2022/04/25 06:01:05;;;;;;;15.37;8.27;;;;;;;18.44;43.47;101168.53;5044741;28;20029;-73
2022/04/25 06:03:30;;;;;;;18.30;9.13;;;;;;;17.88;44.90;101170.47;5065876;28;20083;-73
2022/04/25 06:05:55;;;;;;;18.33;8.97;;;;;;;17.81;44.45;101175.13;5032565;28;20033;-73
2022/04/25 06:08:21;;;;;;;15.80;8.20;;;;;;;17.65;45.07;101173.91;5045913;28;20107;-73
2022/04/25 06:10:46;;;;;;;19.97;10.30;;;;;;;17.94;44.10;101177.38;5065424;28;20385;-73
2022/04/25 06:13:13;;;;;;;17.07;9.27;;;;;;;17.85;44.35;101169.75;5046898;28;20078;-73
2022/04/25 06:15:38;;;;;;;15.70;8.87;;;;;;;17.76;44.85;101187.66;5040088;28;20493;-73
2022/04/25 06:18:04;;;;;;;21.00;8.43;;;;;;;18.02;44.59;101183.25;5045211;28;20029;-73
2022/04/25 06:20:30;;;;;;;15.13;8.57;;;;;;;17.83;45.15;101184.78;5052178;28;20021;-73
2022/04/25 06:23:02;;;;;;;14.83;8.57;;;;;;;17.48;45.62;101197.44;5050666;28;20420;-73
2022/04/25 06:25:31;;;;;;;12.80;7.13;;;;;;;17.57;44.91;101202.38;5050676;28;20025;-73
2022/04/25 06:27:58;;;;;;;16.00;8.13;;;;;;;18.46;43.41;101188.72;5051362;28;20021;-73
2022/04/25 06:30:28;;;;;;;16.47;8.60;;;;;;;18.39;43.27;101197.78;5048469;28;20128;-73
2022/04/25 06:32:53;;;;;;;18.20;8.83;;;;;;;17.83;44.66;101183.00;5052001;28;20062;-73
2022/04/25 06:35:20;;;;;;;15.40;8.93;;;;;;;17.64;45.30;101201.28;5043203;28;20055;-74
2022/04/25 06:37:45;;;;;;;17.33;9.53;;;;;;;17.45;45.04;101199.25;5045701;28;20025;-74
2022/04/25 06:40:11;;;;;;;17.50;8.47;;;;;;;17.26;45.61;101203.41;5050049;28;20105;-74
2022/04/25 06:42:37;;;;;;;16.77;10.10;;;;;;;17.34;45.46;101205.78;5050297;28;20040;-74
2022/04/25 06:45:02;;;;;;;14.07;8.57;;;;;;;16.87;46.76;101216.91;5046837;28;20496;-73
2022/04/25 06:47:28;;;;;;;15.20;8.63;;;;;;;17.27;46.39;101215.72;5040983;28;20108;-73
2022/04/25 06:49:54;;;;;;;16.13;8.53;;;;;;;17.66;44.96;101212.66;5048985;28;20036;-74
2022/04/25 06:52:20;;;;;;;15.17;8.63;;;;;;;16.55;47.09;101210.81;5051819;28;20060;-74
2022/04/25 06:54:46;;;;;;;13.57;8.20;;;;;;;17.95;44.58;101216.13;5050193;28;20017;-74
2022/04/25 06:57:12;;;;;;;15.97;8.33;;;;;;;17.66;44.81;101212.66;5034072;28;20032;-73
2022/04/25 06:59:38;;;;;;;15.87;9.17;;;;;;;17.34;46.51;101227.81;5045912;28;20032;-73
2022/04/25 07:02:04;;;;;;;16.33;9.03;;;;;;;17.15;46.37;101229.31;5033690;28;20511;-73
2022/04/25 07:04:29;;;;;;;16.30;9.37;;;;;;;16.50;48.56;101229.41;5032074;28;20026;-73
2022/04/25 07:06:54;;;;;;;14.47;8.07;;;;;;;17.55;46.23;101225.38;5032177;28;20064;-75
2022/04/25 07:09:20;;;;;;;16.23;8.57;;;;;;;16.29;49.49;101230.88;5038634;28;20025;-74
2022/04/25 07:11:46;;;;;;;20.87;8.57;;;;;;;17.00;47.96;101231.50;5043572;28;20079;-73
2022/04/25 07:14:16;;;;;;;15.50;8.63;;;;;;;16.24;51.11;101222.22;5050615;28;20028;-75
2022/04/25 07:16:45;;;;;;;17.00;9.37;;;;;;;16.15;51.43;101222.47;5051899;28;20097;-75
2022/04/25 07:19:11;;;;;;;15.00;9.13;;;;;;;17.38;47.87;101217.97;5051253;28;20033;-76
2022/04/25 07:29:49;;;;;;;18.27;9.53;;;;;;;17.63;47.94;101247.13;5049986;28;20674;-78
2022/04/25 07:32:18;;;;;;;16.30;8.97;;;;;;;17.09;49.57;101228.59;5050099;28;20488;-77
2022/04/25 07:34:47;;;;;;;18.77;9.53;;;;;;;17.56;48.53;101220.03;5040994;28;20026;-76
2022/04/25 07:37:13;;;;;;;20.50;10.60;;;;;;;18.45;46.33;101229.34;5052252;28;20387;-77
2022/04/25 07:39:38;;;;;;;19.87;10.83;;;;;;;17.85;47.67;101218.19;5052843;28;20021;-76
2022/04/25 07:42:04;;;;;;;24.50;11.30;;;;;;;18.80;45.55;101215.69;5044419;28;20025;-76
2022/04/25 07:44:30;;;;;;;19.93;11.03;;;;;;;18.40;47.65;101230.44;5049177;28;20401;-76
2022/04/25 07:46:56;;;;;;;17.53;10.67;;;;;;;18.87;45.51;101224.25;5050465;28;20508;-75
2022/04/25 07:49:21;;;;;;;19.57;10.13;;;;;;;18.81;45.88;101236.81;5051815;28;20036;-75
2022/04/25 07:51:48;;;;;;;19.13;10.77;;;;;;;17.94;47.16;101243.47;5034993;28;20026;-75
2022/04/25 07:54:14;;;;;;;16.87;10.10;;;;;;;17.71;46.61;101242.47;5046407;28;20032;-75
2022/04/25 07:56:41;;;;;;;20.10;9.87;;;;;;;17.60;47.57;101247.25;5031520;28;20477;-75
2022/04/25 07:59:07;;;;;;;19.77;10.90;;;;;;;17.05;49.61;101248.06;5045942;28;20021;-75
2022/04/25 08:01:33;;;;;;;18.63;10.03;;;;;;;16.22;50.66;101239.84;5044315;28;20365;-76
2022/04/25 08:03:59;;;;;;;15.97;9.70;;;;;;;17.25;48.79;101246.59;5050367;28;20028;-75
2022/04/25 08:06:25;;;;;;;23.80;11.10;;;;;;;16.73;48.92;101251.63;5050864;28;20037;-75
2022/04/25 08:08:51;;;;;;;18.07;10.33;;;;;;;17.67;47.70;101255.81;5048899;28;20513;-75
2022/04/25 08:11:17;;;;;;;19.13;10.70;;;;;;;17.55;47.00;101257.09;5039295;28;20070;-74
2022/04/25 08:19:13;;;;;;;24.73;10.90;;;;;;;17.86;47.08;101271.94;5044261;28;20089;-75
2022/04/25 08:21:39;;;;;;;20.63;10.70;;;;;;;17.52;48.22;101275.69;5046069;28;20060;-75
2022/04/25 08:24:05;;;;;;;20.57;11.57;;;;;;;18.29;46.22;101271.34;5030186;28;20392;-75
2022/04/25 08:26:30;;;;;;;20.67;10.83;;;;;;;18.09;46.54;101280.00;5034837;28;20025;-75
2022/04/25 08:28:56;;;;;;;22.13;12.43;;;;;;;18.16;46.85;101275.34;5049286;28;20020;-75
2022/04/25 08:31:21;;;;;;;18.83;10.97;;;;;;;17.89;47.46;101271.84;5046825;28;20052;-75
2022/04/25 08:33:48;;;;;;;20.20;11.53;;;;;;;18.00;46.36;101275.03;5049711;28;20029;-75
2022/04/25 08:36:14;;;;;;;20.93;11.67;;;;;;;17.46;47.74;101280.25;5043278;28;20036;-76
2022/04/25 08:38:43;;;;;;;19.23;11.00;;;;;;;16.39;50.21;101274.56;5049381;28;20033;-75
2022/04/25 08:41:10;;;;;;;18.37;10.70;;;;;;;16.99;50.21;101279.94;5049269;28;20556;-75
2022/04/25 08:43:38;;;;;;;20.97;11.10;;;;;;;17.09;48.57;101276.13;5049390;28;20021;-75
2022/04/25 08:46:05;;;;;;;16.10;9.60;;;;;;;16.97;50.16;101276.47;5049290;28;20020;-75
2022/04/25 08:48:31;;;;;;;17.83;9.67;;;;;;;18.28;47.13;101280.19;5050852;28;20028;-75
2022/04/25 08:50:58;;;;;;;24.03;10.50;;;;;;;18.00;47.55;101277.66;5049191;28;20078;-75
2022/04/25 08:53:25;;;;;;;19.53;10.23;;;;;;;18.16;47.13;101274.47;5068302;28;20480;-75
2022/04/25 08:55:53;;;;;;;18.47;9.63;;;;;;;19.06;44.49;101275.63;5050597;28;20021;-75
2022/04/25 08:58:19;;;;;;;17.77;10.50;;;;;;;19.86;43.71;101278.69;5049987;28;20032;-75
2022/04/25 09:00:45;;;;;;;20.83;10.27;;;;;;;19.94;43.28;101284.53;5035258;28;20021;-76
2022/04/25 09:03:12;;;;;;;18.60;9.50;;;;;;;18.27;46.49;101290.84;5049624;28;20036;-78
2022/04/25 09:05:38;;;;;;;19.47;9.63;;;;;;;17.62;47.51;101287.69;5063144;28;20445;-76
2022/04/25 09:08:04;;;;;;;20.63;10.23;;;;;;;19.12;45.15;101291.31;5075643;28;20029;-80
2022/04/25 09:10:30;;;;;;;16.83;9.80;;;;;;;19.37;44.77;101295.66;5047878;28;20028;-80
2022/04/25 09:12:58;;;;;;;19.80;10.23;;;;;;;19.45;44.66;101296.22;5058404;28;20032;-81
2022/04/25 09:15:24;;;;;;;17.80;10.60;;;;;;;18.52;45.70;101304.09;5036736;28;20035;-81
2022/04/25 09:17:49;;;;;;;17.50;9.67;;;;;;;18.68;45.45;101308.81;5052381;28;20025;-81
2022/04/25 09:20:15;;;;;;;14.73;8.77;;;;;;;17.84;46.70;101308.16;5054374;28;20025;-80
2022/04/25 09:22:41;;;;;;;17.60;8.80;;;;;;;17.36;48.44;101315.78;5060142;28;20131;-80
2022/04/25 09:25:09;;;;;;;16.40;9.23;;;;;;;18.64;46.15;101308.06;5054214;28;20017;-80
2022/04/25 09:27:35;;;;;;;17.03;9.83;;;;;;;18.19;46.95;101312.28;5054245;28;20036;-81
2022/04/25 09:30:33;;;;;;;17.23;9.10;;;;;;;18.92;45.59;101323.84;5053567;28;20033;-80
2022/04/25 09:32:58;;;;;;;16.30;9.87;;;;;;;19.28;44.97;101326.00;5023881;28;20040;-80
2022/04/25 09:35:30;;;;;;;22.47;10.53;;;;;;;19.88;43.95;101332.53;5034386;28;20025;-80
2022/04/25 09:38:04;;;;;;;19.90;9.47;;;;;;;19.36;43.41;101327.47;5061017;28;20041;-79
2022/04/25 09:40:33;;;;;;;20.40;9.67;;;;;;;17.97;47.48;101343.91;5048860;28;20017;-80
2022/04/25 09:43:03;;;;;;;17.73;9.13;;;;;;;17.77;47.27;101341.84;5037602;28;20025;-80
2022/04/25 09:45:32;;;;;;;16.13;9.00;;;;;;;18.48;46.09;101345.66;5053131;28;20037;-79
2022/04/25 09:47:58;;;;;;;22.47;9.63;;;;;;;18.43;45.94;101337.00;5053175;28;20024;-80
2022/04/25 09:50:27;;;;;;;20.50;11.07;;;;;;;18.59;45.22;101341.78;5053737;28;20116;-79
2022/04/25 09:52:58;;;;;;;17.40;9.40;;;;;;;17.49;48.02;101348.00;5052356;28;20483;-78
2022/04/25 09:55:26;;;;;;;15.87;9.00;;;;;;;17.48;47.38;101346.28;5062733;28;20400;-78
2022/04/25 09:57:51;;;;;;;19.07;9.33;;;;;;;17.29;48.15;101340.69;5057031;28;20142;-77
2022/04/25 10:00:37;;;;;;;22.13;10.17;;;;;;;18.94;45.51;101348.47;5074980;28;20068;-78
2022/04/25 10:03:05;;;;;;;17.40;9.00;;;;;;;18.49;44.80;101349.16;5050122;28;20032;-76
2022/04/25 10:05:40;;;;;;;21.33;9.70;;;;;;;17.75;46.64;101357.75;5053569;28;20025;-78
2022/04/25 10:08:07;;;;;;;20.43;11.27;;;;;;;18.38;45.71;101353.97;5035207;28;20033;-78
2022/04/25 10:10:33;;;;;;;18.57;10.67;;;;;;;18.02;45.61;101356.94;5050580;28;20143;-79
2022/04/25 10:13:00;;;;;;;19.47;11.03;;;;;;;18.24;46.08;101359.75;5050565;28;20093;-77
2022/04/25 10:15:26;;;;;;;21.47;9.83;;;;;;;17.72;46.90;101357.88;5065974;28;20025;-77
2022/04/25 10:17:54;;;;;;;19.27;10.93;;;;;;;18.83;44.59;101355.91;5045177;28;20031;-78
2022/04/25 10:20:19;;;;;;;20.00;11.23;;;;;;;19.62;43.56;101355.66;5048314;28;20028;-78
2022/04/25 10:22:44;;;;;;;17.87;10.67;;;;;;;19.42;43.91;101353.78;5050773;28;20044;-78
2022/04/25 10:25:10;;;;;;;21.80;11.40;;;;;;;18.20;45.97;101366.06;5050973;28;20032;-78
2022/04/25 10:27:39;;;;;;;18.03;11.20;;;;;;;18.67;44.66;101360.91;5051356;28;20427;-79
2022/04/25 10:30:12;;;;;;;22.67;10.93;;;;;;;18.06;46.35;101369.16;5052810;28;20029;-78
2022/04/25 10:32:38;;;;;;;20.47;10.77;;;;;;;18.94;44.03;101363.50;5063859;28;20042;-78
2022/04/25 10:35:11;;;;;;;17.40;9.90;;;;;;;18.95;44.92;101359.94;5049902;28;20029;-75
2022/04/25 10:37:43;;;;;;;18.97;11.07;;;;;;;19.10;44.00;101364.66;5035921;28;20021;-78
2022/04/25 10:44:10;;;;;;;18.33;10.63;;;;;;;19.23;43.50;101365.06;5052036;28;20070;-78
2022/04/25 10:46:01;;;;;;;17.37;10.60;;;;;;;18.87;44.45;101372.56;5037578;28;20500;-77
2022/04/25 10:48:28;;;;;;;20.97;12.30;;;;;;;18.55;43.75;101382.53;5074008;28;20032;-76
2022/04/25 10:51:18;;;;;;;20.03;11.57;;;;;;;18.68;44.37;101381.16;5038400;28;20035;-76
2022/04/25 10:54:00;;;;;;;19.03;11.00;;;;;;;18.78;44.11;101387.88;5051566;28;20060;-77
2022/04/25 10:56:30;;;;;;;20.88;10.45;;;;;;;19.28;43.38;101388.75;5052945;28;20021;-77
2022/04/25 10:59:24;;;;;;;24.73;10.93;;;;;;;18.50;45.09;101392.41;5051831;28;20033;-77
2022/04/25 11:01:51;;;;;;;23.00;11.33;;;;;;;17.99;45.42;101394.94;5050492;28;20421;-76
2022/04/25 11:04:18;;;;;;;19.87;11.03;;;;;;;17.28;46.84;101400.59;5049682;28;20396;-77
2022/04/25 11:06:43;;;;;;;20.67;10.87;;;;;;;18.69;44.47;101396.13;5034648;28;20090;-76
2022/04/25 11:09:09;;;;;;;24.57;12.17;;;;;;;18.23;44.98;101395.03;5053255;28;20020;-76
2022/04/25 11:11:48;;;;;;;20.10;11.43;;;;;;;19.03;44.42;101397.63;5071997;28;20073;-76
2022/04/25 11:14:15;;;;;;;23.10;11.73;;;;;;;19.23;43.10;101396.00;5050512;28;20036;-75
2022/04/25 11:16:41;;;;;;;20.13;10.83;;;;;;;17.49;45.20;101405.25;5039871;28;20056;-76
2022/04/25 11:19:08;;;;;;;21.40;11.20;;;;;;;17.24;46.02;101416.56;5034867;28;20102;-74
2022/04/25 11:21:33;;;;;;;21.03;10.90;;;;;;;17.08;46.83;101409.06;5053208;28;20044;-75
2022/04/25 11:24:01;;;;;;;19.50;10.77;;;;;;;18.41;44.60;101423.56;5059618;28;20025;-74
2022/04/25 11:26:26;;;;;;;24.67;11.73;;;;;;;18.22;44.69;101419.81;5047380;28;20060;-75
2022/04/25 11:28:55;;;;;;;26.13;11.97;;;;;;;19.01;43.38;101412.69;5047766;28;20258;-78
2022/04/25 11:31:33;;;;;;;25.37;12.93;;;;;;;19.78;42.61;101414.22;5050284;28;20082;-78
2022/04/25 11:34:04;;;;;;;25.10;12.23;;;;;;;19.23;42.67;101406.59;5066143;28;20082;-76
2022/04/25 11:36:35;;;;;;;22.90;13.37;;;;;;;19.98;42.02;101411.66;5050799;28;20064;-75
2022/04/25 11:41:46;;;;;;;26.03;13.10;;;;;;;20.17;41.60;101422.41;5048763;28;20032;-76
2022/04/25 11:44:11;;;;;;;20.93;11.33;;;;;;;19.72;41.43;101415.34;5032495;28;20029;-75
2022/04/25 11:46:37;;;;;;;20.77;12.03;;;;;;;20.35;41.07;101417.28;5037073;28;20021;-74
2022/04/25 11:49:05;;;;;;;21.33;10.77;;;;;;;19.72;41.08;101425.94;5031355;28;20128;-75